sensor_id;sensor_type;location;lat;lon;timestamp;P1;durP1;ratioP1;P2;durP2;ratioP2
11197;SDS011;5655;48.744;9.162;2023-11-21T00:02:24;10.15;;;2.55;;
11197;SDS011;5655;48.744;9.162;2023-11-21T00:04:50;6.95;;;2.38;;
11197;SDS011;5655;48.744;9.162;2023-11-21T00:07:16;5.40;;;2.33;;
11197;SDS011;5655;48.744;9.162;2023-11-21T00:09:41;7.60;;;2.40;;
11197;SDS011;5655;48.744;9.162;2023-11-21T00:12:10;5.75;;;2.53;;
11197;SDS011;5655;48.744;9.162;2023-11-21T00:14:36;4.68;;;2.58;;
11197;SDS011;5655;48.744;9.162;2023-11-21T00:17:03;4.82;;;2.33;;
11197;SDS011;5655;48.744;9.162;2023-11-21T00:19:28;7.15;;;2.70;;
11197;SDS011;5655;48.744;9.162;2023-11-21T00:21:54;6.90;;;2.40;;
11197;SDS011;5655;48.744;9.162;2023-11-21T00:24:19;6.25;;;2.92;;
11197;SDS011;5655;48.744;9.162;2023-11-21T00:26:44;9.60;;;3.33;;
11197;SDS011;5655;48.744;9.162;2023-11-21T00:29:09;10.27;;;3.30;;
11197;SDS011;5655;48.744;9.162;2023-11-21T00:31:36;8.63;;;2.40;;
11197;SDS011;5655;48.744;9.162;2023-11-21T00:34:04;5.85;;;2.50;;
11197;SDS011;5655;48.744;9.162;2023-11-21T00:36:30;11.45;;;2.80;;
11197;SDS011;5655;48.744;9.162;2023-11-21T00:38:58;6.80;;;2.20;;
11197;SDS011;5655;48.744;9.162;2023-11-21T00:41:24;8.10;;;2.53;;
11197;SDS011;5655;48.744;9.162;2023-11-21T00:43:52;9.80;;;2.30;;
11197;SDS011;5655;48.744;9.162;2023-11-21T00:46:17;6.13;;;2.40;;
11197;SDS011;5655;48.744;9.162;2023-11-21T00:48:42;9.43;;;2.70;;
11197;SDS011;5655;48.744;9.162;2023-11-21T00:51:08;4.95;;;2.70;;
11197;SDS011;5655;48.744;9.162;2023-11-21T00:53:33;9.25;;;2.88;;
11197;SDS011;5655;48.744;9.162;2023-11-21T00:55:58;6.38;;;2.30;;
11197;SDS011;5655;48.744;9.162;2023-11-21T00:58:24;6.65;;;2.13;;
11197;SDS011;5655;48.744;9.162;2023-11-21T01:00:49;5.53;;;2.17;;
11197;SDS011;5655;48.744;9.162;2023-11-21T01:03:15;8.30;;;2.45;;
11197;SDS011;5655;48.744;9.162;2023-11-21T01:05:40;7.20;;;2.83;;
11197;SDS011;5655;48.744;9.162;2023-11-21T01:08:05;5.18;;;2.10;;
11197;SDS011;5655;48.744;9.162;2023-11-21T01:10:31;3.42;;;1.83;;
11197;SDS011;5655;48.744;9.162;2023-11-21T01:12:56;6.55;;;2.33;;
11197;SDS011;5655;48.744;9.162;2023-11-21T01:15:22;5.18;;;2.03;;
11197;SDS011;5655;48.744;9.162;2023-11-21T01:17:48;10.77;;;2.53;;
11197;SDS011;5655;48.744;9.162;2023-11-21T01:20:13;5.90;;;2.97;;
11197;SDS011;5655;48.744;9.162;2023-11-21T01:22:39;2.97;;;1.83;;
11197;SDS011;5655;48.744;9.162;2023-11-21T01:25:04;4.68;;;2.17;;
11197;SDS011;5655;48.744;9.162;2023-11-21T01:27:32;4.82;;;2.03;;
11197;SDS011;5655;48.744;9.162;2023-11-21T01:29:59;4.13;;;2.42;;
11197;SDS011;5655;48.744;9.162;2023-11-21T01:32:24;6.15;;;2.10;;
11197;SDS011;5655;48.744;9.162;2023-11-21T01:34:50;5.65;;;2.28;;
11197;SDS011;5655;48.744;9.162;2023-11-21T01:37:15;6.13;;;2.05;;
11197;SDS011;5655;48.744;9.162;2023-11-21T01:39:42;8.57;;;2.10;;
11197;SDS011;5655;48.744;9.162;2023-11-21T01:42:10;7.90;;;2.22;;
11197;SDS011;5655;48.744;9.162;2023-11-21T01:44:37;6.00;;;2.20;;
11197;SDS011;5655;48.744;9.162;2023-11-21T01:47:03;8.95;;;2.33;;
11197;SDS011;5655;48.744;9.162;2023-11-21T01:49:32;5.78;;;2.13;;
11197;SDS011;5655;48.744;9.162;2023-11-21T01:51:58;3.30;;;1.90;;
11197;SDS011;5655;48.744;9.162;2023-11-21T01:54:24;6.60;;;1.88;;
11197;SDS011;5655;48.744;9.162;2023-11-21T01:56:50;6.30;;;1.67;;
11197;SDS011;5655;48.744;9.162;2023-11-21T01:59:18;6.35;;;2.22;;
11197;SDS011;5655;48.744;9.162;2023-11-21T02:01:46;5.28;;;1.90;;
11197;SDS011;5655;48.744;9.162;2023-11-21T02:04:12;6.35;;;1.95;;
11197;SDS011;5655;48.744;9.162;2023-11-21T02:06:38;5.28;;;1.80;;
11197;SDS011;5655;48.744;9.162;2023-11-21T02:09:04;4.38;;;1.70;;
11197;SDS011;5655;48.744;9.162;2023-11-21T02:11:29;5.93;;;1.73;;
11197;SDS011;5655;48.744;9.162;2023-11-21T02:13:55;3.83;;;2.17;;
11197;SDS011;5655;48.744;9.162;2023-11-21T02:16:20;5.07;;;1.90;;
11197;SDS011;5655;48.744;9.162;2023-11-21T02:18:49;5.22;;;1.90;;
11197;SDS011;5655;48.744;9.162;2023-11-21T02:21:16;3.53;;;1.55;;
11197;SDS011;5655;48.744;9.162;2023-11-21T02:23:42;5.75;;;1.83;;
11197;SDS011;5655;48.744;9.162;2023-11-21T02:26:09;1.95;;;1.30;;
11197;SDS011;5655;48.744;9.162;2023-11-21T02:28:36;3.45;;;1.63;;
11197;SDS011;5655;48.744;9.162;2023-11-21T02:31:01;5.85;;;1.48;;
11197;SDS011;5655;48.744;9.162;2023-11-21T02:33:29;6.38;;;1.65;;
11197;SDS011;5655;48.744;9.162;2023-11-21T02:35:54;1.77;;;1.35;;
11197;SDS011;5655;48.744;9.162;2023-11-21T02:38:22;4.45;;;1.55;;
11197;SDS011;5655;48.744;9.162;2023-11-21T02:40:48;3.97;;;1.30;;
11197;SDS011;5655;48.744;9.162;2023-11-21T02:43:14;3.97;;;1.08;;
11197;SDS011;5655;48.744;9.162;2023-11-21T02:45:39;2.55;;;1.27;;
11197;SDS011;5655;48.744;9.162;2023-11-21T02:48:06;4.35;;;1.45;;
11197;SDS011;5655;48.744;9.162;2023-11-21T02:50:32;2.25;;;1.17;;
11197;SDS011;5655;48.744;9.162;2023-11-21T02:52:57;5.40;;;1.17;;
11197;SDS011;5655;48.744;9.162;2023-11-21T02:55:25;4.40;;;1.13;;
11197;SDS011;5655;48.744;9.162;2023-11-21T02:57:51;1.58;;;1.10;;
11197;SDS011;5655;48.744;9.162;2023-11-21T03:00:16;6.28;;;1.35;;
11197;SDS011;5655;48.744;9.162;2023-11-21T03:02:42;2.58;;;1.42;;
11197;SDS011;5655;48.744;9.162;2023-11-21T03:05:08;4.72;;;1.40;;
11197;SDS011;5655;48.744;9.162;2023-11-21T03:07:34;2.03;;;1.23;;
11197;SDS011;5655;48.744;9.162;2023-11-21T03:10:00;5.35;;;1.25;;
11197;SDS011;5655;48.744;9.162;2023-11-21T03:12:25;3.55;;;1.02;;
11197;SDS011;5655;48.744;9.162;2023-11-21T03:14:51;1.55;;;1.13;;
11197;SDS011;5655;48.744;9.162;2023-11-21T03:17:16;4.30;;;1.08;;
11197;SDS011;5655;48.744;9.162;2023-11-21T03:19:41;1.75;;;1.13;;
11197;SDS011;5655;48.744;9.162;2023-11-21T03:22:07;1.30;;;1.00;;
11197;SDS011;5655;48.744;9.162;2023-11-21T03:24:33;4.82;;;1.38;;
11197;SDS011;5655;48.744;9.162;2023-11-21T03:26:59;4.00;;;0.80;;
11197;SDS011;5655;48.744;9.162;2023-11-21T03:29:25;2.88;;;0.90;;
11197;SDS011;5655;48.744;9.162;2023-11-21T03:31:50;4.10;;;1.05;;
11197;SDS011;5655;48.744;9.162;2023-11-21T03:34:23;1.10;;;0.93;;
11197;SDS011;5655;48.744;9.162;2023-11-21T03:36:53;5.78;;;1.50;;
11197;SDS011;5655;48.744;9.162;2023-11-21T03:39:19;5.35;;;0.90;;
11197;SDS011;5655;48.744;9.162;2023-11-21T03:41:46;1.55;;;1.00;;
11197;SDS011;5655;48.744;9.162;2023-11-21T03:44:11;1.60;;;1.08;;
11197;SDS011;5655;48.744;9.162;2023-11-21T03:46:37;2.85;;;1.00;;
11197;SDS011;5655;48.744;9.162;2023-11-21T03:49:02;3.08;;;1.20;;
11197;SDS011;5655;48.744;9.162;2023-11-21T03:51:27;1.35;;;0.88;;
11197;SDS011;5655;48.744;9.162;2023-11-21T03:53:52;2.05;;;1.13;;
11197;SDS011;5655;48.744;9.162;2023-11-21T03:56:18;2.72;;;1.55;;
11197;SDS011;5655;48.744;9.162;2023-11-21T03:58:45;2.58;;;0.95;;
11197;SDS011;5655;48.744;9.162;2023-11-21T04:01:10;1.60;;;0.80;;
11197;SDS011;5655;48.744;9.162;2023-11-21T04:03:36;2.83;;;1.13;;
11197;SDS011;5655;48.744;9.162;2023-11-21T04:06:01;3.75;;;1.05;;
11197;SDS011;5655;48.744;9.162;2023-11-21T04:08:26;2.78;;;0.90;;
11197;SDS011;5655;48.744;9.162;2023-11-21T04:10:52;4.05;;;1.20;;
11197;SDS011;5655;48.744;9.162;2023-11-21T04:13:18;5.65;;;1.27;;
11197;SDS011;5655;48.744;9.162;2023-11-21T04:15:44;1.95;;;1.00;;
11197;SDS011;5655;48.744;9.162;2023-11-21T04:18:09;1.73;;;1.00;;
11197;SDS011;5655;48.744;9.162;2023-11-21T04:20:35;1.60;;;0.88;;
11197;SDS011;5655;48.744;9.162;2023-11-21T04:23:00;1.20;;;1.05;;
11197;SDS011;5655;48.744;9.162;2023-11-21T04:25:25;13.98;;;3.00;;
11197;SDS011;5655;48.744;9.162;2023-11-21T04:27:52;1.35;;;0.80;;
11197;SDS011;5655;48.744;9.162;2023-11-21T04:30:17;3.45;;;1.00;;
11197;SDS011;5655;48.744;9.162;2023-11-21T04:32:43;1.30;;;0.68;;
11197;SDS011;5655;48.744;9.162;2023-11-21T04:35:08;2.70;;;1.02;;
11197;SDS011;5655;48.744;9.162;2023-11-21T04:37:34;1.23;;;0.80;;
11197;SDS011;5655;48.744;9.162;2023-11-21T04:39:59;2.35;;;0.90;;
11197;SDS011;5655;48.744;9.162;2023-11-21T04:42:24;2.10;;;0.70;;
11197;SDS011;5655;48.744;9.162;2023-11-21T04:44:50;2.08;;;0.63;;
11197;SDS011;5655;48.744;9.162;2023-11-21T04:47:15;1.80;;;0.68;;
11197;SDS011;5655;48.744;9.162;2023-11-21T04:49:44;4.75;;;1.25;;
11197;SDS011;5655;48.744;9.162;2023-11-21T04:52:12;1.30;;;0.80;;
11197;SDS011;5655;48.744;9.162;2023-11-21T04:54:37;2.97;;;0.95;;
11197;SDS011;5655;48.744;9.162;2023-11-21T04:57:02;1.73;;;1.05;;
11197;SDS011;5655;48.744;9.162;2023-11-21T04:59:29;2.15;;;0.90;;
11197;SDS011;5655;48.744;9.162;2023-11-21T05:01:54;3.35;;;0.95;;
11197;SDS011;5655;48.744;9.162;2023-11-21T05:04:19;1.43;;;1.00;;
11197;SDS011;5655;48.744;9.162;2023-11-21T05:06:47;1.25;;;0.75;;
11197;SDS011;5655;48.744;9.162;2023-11-21T05:09:12;1.85;;;0.98;;
11197;SDS011;5655;48.744;9.162;2023-11-21T05:11:38;1.48;;;0.90;;
11197;SDS011;5655;48.744;9.162;2023-11-21T05:14:04;2.70;;;0.98;;
11197;SDS011;5655;48.744;9.162;2023-11-21T05:16:30;0.90;;;0.90;;
11197;SDS011;5655;48.744;9.162;2023-11-21T05:18:56;1.05;;;0.80;;
11197;SDS011;5655;48.744;9.162;2023-11-21T05:21:25;0.98;;;0.80;;
11197;SDS011;5655;48.744;9.162;2023-11-21T05:23:57;2.25;;;0.90;;
11197;SDS011;5655;48.744;9.162;2023-11-21T05:26:22;7.05;;;1.40;;
11197;SDS011;5655;48.744;9.162;2023-11-21T05:28:47;4.60;;;0.90;;
11197;SDS011;5655;48.744;9.162;2023-11-21T05:31:13;1.35;;;0.77;;
11197;SDS011;5655;48.744;9.162;2023-11-21T05:33:38;1.95;;;1.00;;
11197;SDS011;5655;48.744;9.162;2023-11-21T05:36:04;2.00;;;0.88;;
11197;SDS011;5655;48.744;9.162;2023-11-21T05:38:29;1.38;;;0.90;;
11197;SDS011;5655;48.744;9.162;2023-11-21T05:40:54;3.08;;;0.68;;
11197;SDS011;5655;48.744;9.162;2023-11-21T05:43:20;2.35;;;0.80;;
11197;SDS011;5655;48.744;9.162;2023-11-21T05:45:45;2.83;;;0.82;;
11197;SDS011;5655;48.744;9.162;2023-11-21T05:48:10;1.98;;;0.80;;
11197;SDS011;5655;48.744;9.162;2023-11-21T05:50:36;1.67;;;0.90;;
11197;SDS011;5655;48.744;9.162;2023-11-21T05:53:02;2.67;;;0.80;;
11197;SDS011;5655;48.744;9.162;2023-11-21T05:55:28;1.52;;;0.88;;
11197;SDS011;5655;48.744;9.162;2023-11-21T05:57:53;1.67;;;1.00;;
11197;SDS011;5655;48.744;9.162;2023-11-21T06:00:19;1.10;;;1.00;;
11197;SDS011;5655;48.744;9.162;2023-11-21T06:02:49;1.48;;;0.95;;
11197;SDS011;5655;48.744;9.162;2023-11-21T06:05:18;1.17;;;0.95;;
11197;SDS011;5655;48.744;9.162;2023-11-21T06:07:45;1.13;;;0.85;;
11197;SDS011;5655;48.744;9.162;2023-11-21T06:10:10;1.52;;;1.20;;
11197;SDS011;5655;48.744;9.162;2023-11-21T06:12:37;1.17;;;1.08;;
11197;SDS011;5655;48.744;9.162;2023-11-21T06:15:05;3.42;;;1.45;;
11197;SDS011;5655;48.744;9.162;2023-11-21T06:17:33;1.92;;;1.00;;
11197;SDS011;5655;48.744;9.162;2023-11-21T13:38:19;0.40;;;0.40;;
11197;SDS011;5655;48.744;9.162;2023-11-21T13:40:55;0.60;;;0.60;;
11197;SDS011;5655;48.744;9.162;2023-11-21T13:43:24;1.40;;;0.90;;
11197;SDS011;5655;48.744;9.162;2023-11-21T13:45:51;1.63;;;0.90;;
11197;SDS011;5655;48.744;9.162;2023-11-21T13:48:26;1.13;;;0.80;;
11197;SDS011;5655;48.744;9.162;2023-11-21T13:51:07;1.17;;;0.80;;
11197;SDS011;5655;48.744;9.162;2023-11-21T13:53:41;1.08;;;0.90;;
11197;SDS011;5655;48.744;9.162;2023-11-21T13:56:07;1.50;;;1.00;;
11197;SDS011;5655;48.744;9.162;2023-11-21T13:58:33;2.78;;;1.10;;
11197;SDS011;5655;48.744;9.162;2023-11-21T14:01:20;2.50;;;1.67;;
11197;SDS011;5655;48.744;9.162;2023-11-21T14:03:56;2.33;;;1.98;;
11197;SDS011;5655;48.744;9.162;2023-11-21T14:06:27;2.13;;;1.90;;
11197;SDS011;5655;48.744;9.162;2023-11-21T14:08:59;2.25;;;2.05;;
11197;SDS011;5655;48.744;9.162;2023-11-21T14:11:30;2.53;;;2.33;;
11197;SDS011;5655;48.744;9.162;2023-11-21T14:13:55;6.57;;;2.42;;
11197;SDS011;5655;48.744;9.162;2023-11-21T14:16:21;3.20;;;2.45;;
11197;SDS011;5655;48.744;9.162;2023-11-21T14:18:47;3.85;;;2.53;;
11197;SDS011;5655;48.744;9.162;2023-11-21T14:21:26;5.88;;;2.88;;
11197;SDS011;5655;48.744;9.162;2023-11-21T14:23:52;7.35;;;3.30;;
11197;SDS011;5655;48.744;9.162;2023-11-21T14:26:19;4.72;;;3.08;;
11197;SDS011;5655;48.744;9.162;2023-11-21T14:28:45;7.25;;;3.85;;
11197;SDS011;5655;48.744;9.162;2023-11-21T14:31:13;3.47;;;2.97;;
11197;SDS011;5655;48.744;9.162;2023-11-21T14:33:41;3.33;;;3.00;;
11197;SDS011;5655;48.744;9.162;2023-11-21T14:36:07;4.07;;;2.90;;
11197;SDS011;5655;48.744;9.162;2023-11-21T14:38:35;3.50;;;3.03;;
11197;SDS011;5655;48.744;9.162;2023-11-21T14:41:02;3.72;;;3.38;;
11197;SDS011;5655;48.744;9.162;2023-11-21T14:43:27;3.97;;;3.33;;
11197;SDS011;5655;48.744;9.162;2023-11-21T14:45:54;4.30;;;3.50;;
11197;SDS011;5655;48.744;9.162;2023-11-21T14:48:21;4.30;;;3.40;;
11197;SDS011;5655;48.744;9.162;2023-11-21T14:51:04;3.92;;;3.53;;
11197;SDS011;5655;48.744;9.162;2023-11-21T14:53:30;4.35;;;3.60;;
11197;SDS011;5655;48.744;9.162;2023-11-21T14:56:27;3.97;;;3.58;;
11197;SDS011;5655;48.744;9.162;2023-11-21T14:58:56;4.55;;;3.10;;
11197;SDS011;5655;48.744;9.162;2023-11-21T15:01:25;3.60;;;3.05;;
11197;SDS011;5655;48.744;9.162;2023-11-21T15:04:10;3.08;;;2.60;;
11197;SDS011;5655;48.744;9.162;2023-11-21T15:06:48;2.95;;;2.65;;
11197;SDS011;5655;48.744;9.162;2023-11-21T15:09:14;3.47;;;2.80;;
11197;SDS011;5655;48.744;9.162;2023-11-21T15:11:39;3.30;;;2.95;;
11197;SDS011;5655;48.744;9.162;2023-11-21T15:14:06;4.32;;;3.40;;
11197;SDS011;5655;48.744;9.162;2023-11-21T15:16:35;5.28;;;3.17;;
11197;SDS011;5655;48.744;9.162;2023-11-21T15:19:07;4.35;;;2.90;;
11197;SDS011;5655;48.744;9.162;2023-11-21T15:21:34;4.68;;;3.53;;
11197;SDS011;5655;48.744;9.162;2023-11-21T15:24:00;5.95;;;3.28;;
11197;SDS011;5655;48.744;9.162;2023-11-21T15:26:26;3.80;;;3.33;;
11197;SDS011;5655;48.744;9.162;2023-11-21T15:28:51;4.25;;;3.50;;
11197;SDS011;5655;48.744;9.162;2023-11-21T15:31:17;4.70;;;3.20;;
11197;SDS011;5655;48.744;9.162;2023-11-21T15:33:46;5.57;;;3.60;;
11197;SDS011;5655;48.744;9.162;2023-11-21T15:36:11;4.80;;;3.58;;
11197;SDS011;5655;48.744;9.162;2023-11-21T15:38:38;7.20;;;3.80;;
11197;SDS011;5655;48.744;9.162;2023-11-21T15:41:04;6.30;;;4.35;;
11197;SDS011;5655;48.744;9.162;2023-11-21T15:43:32;5.93;;;4.88;;
11197;SDS011;5655;48.744;9.162;2023-11-21T15:45:57;6.15;;;4.63;;
11197;SDS011;5655;48.744;9.162;2023-11-21T15:48:23;7.15;;;4.75;;
11197;SDS011;5655;48.744;9.162;2023-11-21T15:50:48;6.63;;;4.60;;
11197;SDS011;5655;48.744;9.162;2023-11-21T15:53:15;6.70;;;4.97;;
11197;SDS011;5655;48.744;9.162;2023-11-21T15:55:41;6.68;;;4.78;;
11197;SDS011;5655;48.744;9.162;2023-11-21T15:58:08;11.27;;;6.10;;
11197;SDS011;5655;48.744;9.162;2023-11-21T16:00:33;10.27;;;6.38;;
11197;SDS011;5655;48.744;9.162;2023-11-21T16:02:59;7.03;;;4.93;;
11197;SDS011;5655;48.744;9.162;2023-11-21T16:05:24;6.55;;;4.88;;
11197;SDS011;5655;48.744;9.162;2023-11-21T16:07:51;7.45;;;5.10;;
11197;SDS011;5655;48.744;9.162;2023-11-21T16:10:16;6.70;;;5.50;;
11197;SDS011;5655;48.744;9.162;2023-11-21T16:12:44;7.47;;;5.45;;
11197;SDS011;5655;48.744;9.162;2023-11-21T16:15:09;7.30;;;5.32;;
11197;SDS011;5655;48.744;9.162;2023-11-21T16:17:35;8.45;;;5.10;;
11197;SDS011;5655;48.744;9.162;2023-11-21T16:20:04;7.95;;;5.32;;
11197;SDS011;5655;48.744;9.162;2023-11-21T16:22:36;8.35;;;5.75;;
11197;SDS011;5655;48.744;9.162;2023-11-21T16:25:02;8.98;;;5.63;;
11197;SDS011;5655;48.744;9.162;2023-11-21T16:27:29;8.60;;;6.43;;
11197;SDS011;5655;48.744;9.162;2023-11-21T16:29:55;10.10;;;6.95;;
11197;SDS011;5655;48.744;9.162;2023-11-21T16:32:21;9.50;;;6.22;;
11197;SDS011;5655;48.744;9.162;2023-11-21T16:34:47;9.50;;;6.43;;
11197;SDS011;5655;48.744;9.162;2023-11-21T16:37:12;11.27;;;6.65;;
11197;SDS011;5655;48.744;9.162;2023-11-21T16:39:38;10.73;;;6.63;;
11197;SDS011;5655;48.744;9.162;2023-11-21T16:42:06;13.45;;;7.00;;
11197;SDS011;5655;48.744;9.162;2023-11-21T16:44:32;10.65;;;6.80;;
11197;SDS011;5655;48.744;9.162;2023-11-21T16:46:57;11.95;;;6.40;;
11197;SDS011;5655;48.744;9.162;2023-11-21T16:49:23;8.80;;;6.13;;
11197;SDS011;5655;48.744;9.162;2023-11-21T16:51:49;11.13;;;6.25;;
11197;SDS011;5655;48.744;9.162;2023-11-21T16:54:19;11.55;;;7.30;;
11197;SDS011;5655;48.744;9.162;2023-11-21T16:56:44;10.27;;;6.80;;
11197;SDS011;5655;48.744;9.162;2023-11-21T16:59:10;13.13;;;6.90;;
11197;SDS011;5655;48.744;9.162;2023-11-21T17:01:35;15.77;;;7.88;;
11197;SDS011;5655;48.744;9.162;2023-11-21T17:04:01;12.50;;;7.55;;
11197;SDS011;5655;48.744;9.162;2023-11-21T17:06:27;9.10;;;6.97;;
11197;SDS011;5655;48.744;9.162;2023-11-21T17:08:55;10.43;;;7.60;;
11197;SDS011;5655;48.744;9.162;2023-11-21T17:11:21;10.75;;;7.70;;
11197;SDS011;5655;48.744;9.162;2023-11-21T17:13:47;11.05;;;7.60;;
11197;SDS011;5655;48.744;9.162;2023-11-21T17:16:12;11.65;;;7.55;;
11197;SDS011;5655;48.744;9.162;2023-11-21T17:18:38;12.07;;;7.07;;
11197;SDS011;5655;48.744;9.162;2023-11-21T17:21:03;12.50;;;7.78;;
11197;SDS011;5655;48.744;9.162;2023-11-21T17:23:30;10.52;;;7.43;;
11197;SDS011;5655;48.744;9.162;2023-11-21T17:25:55;11.90;;;8.35;;
11197;SDS011;5655;48.744;9.162;2023-11-21T17:28:21;14.30;;;9.20;;
11197;SDS011;5655;48.744;9.162;2023-11-21T17:30:46;18.02;;;10.15;;
11197;SDS011;5655;48.744;9.162;2023-11-21T17:33:12;17.40;;;10.50;;
11197;SDS011;5655;48.744;9.162;2023-11-21T17:35:41;15.82;;;9.77;;
11197;SDS011;5655;48.744;9.162;2023-11-21T17:38:07;16.80;;;10.40;;
11197;SDS011;5655;48.744;9.162;2023-11-21T17:40:33;16.90;;;10.73;;
11197;SDS011;5655;48.744;9.162;2023-11-21T17:43:00;16.23;;;10.32;;
11197;SDS011;5655;48.744;9.162;2023-11-21T17:45:25;15.70;;;10.00;;
11197;SDS011;5655;48.744;9.162;2023-11-21T17:47:51;17.58;;;10.38;;
11197;SDS011;5655;48.744;9.162;2023-11-21T17:50:16;20.70;;;10.90;;
11197;SDS011;5655;48.744;9.162;2023-11-21T17:52:41;17.20;;;10.02;;
11197;SDS011;5655;48.744;9.162;2023-11-21T17:55:09;18.45;;;10.02;;
11197;SDS011;5655;48.744;9.162;2023-11-21T17:57:35;17.05;;;10.05;;
11197;SDS011;5655;48.744;9.162;2023-11-21T18:00:01;15.25;;;10.27;;
11197;SDS011;5655;48.744;9.162;2023-11-21T18:02:34;16.20;;;10.57;;
11197;SDS011;5655;48.744;9.162;2023-11-21T18:05:00;15.63;;;10.40;;
11197;SDS011;5655;48.744;9.162;2023-11-21T18:07:26;15.77;;;10.00;;
11197;SDS011;5655;48.744;9.162;2023-11-21T18:09:52;17.75;;;10.55;;
11197;SDS011;5655;48.744;9.162;2023-11-21T18:12:17;14.98;;;9.32;;
11197;SDS011;5655;48.744;9.162;2023-11-21T18:14:44;19.55;;;9.77;;
11197;SDS011;5655;48.744;9.162;2023-11-21T18:17:13;15.57;;;8.63;;
11197;SDS011;5655;48.744;9.162;2023-11-21T18:19:41;13.40;;;8.90;;
11197;SDS011;5655;48.744;9.162;2023-11-21T18:22:07;13.70;;;8.10;;
11197;SDS011;5655;48.744;9.162;2023-11-21T18:24:33;13.77;;;8.02;;
11197;SDS011;5655;48.744;9.162;2023-11-21T18:26:58;14.45;;;8.68;;
11197;SDS011;5655;48.744;9.162;2023-11-21T18:29:24;12.95;;;8.52;;
11197;SDS011;5655;48.744;9.162;2023-11-21T18:31:49;12.85;;;8.70;;
11197;SDS011;5655;48.744;9.162;2023-11-21T18:34:14;12.23;;;8.60;;
11197;SDS011;5655;48.744;9.162;2023-11-21T18:36:41;14.07;;;9.02;;
11197;SDS011;5655;48.744;9.162;2023-11-21T18:39:08;12.18;;;8.75;;
11197;SDS011;5655;48.744;9.162;2023-11-21T18:41:34;13.90;;;9.20;;
11197;SDS011;5655;48.744;9.162;2023-11-21T18:44:00;17.13;;;9.05;;
11197;SDS011;5655;48.744;9.162;2023-11-21T18:46:26;13.98;;;8.20;;
11197;SDS011;5655;48.744;9.162;2023-11-21T18:48:51;15.07;;;8.50;;
11197;SDS011;5655;48.744;9.162;2023-11-21T18:51:18;16.23;;;10.65;;
11197;SDS011;5655;48.744;9.162;2023-11-21T18:53:43;18.05;;;10.23;;
11197;SDS011;5655;48.744;9.162;2023-11-21T18:56:16;11.32;;;8.05;;
11197;SDS011;5655;48.744;9.162;2023-11-21T18:58:43;18.17;;;8.75;;
11197;SDS011;5655;48.744;9.162;2023-11-21T19:01:08;16.33;;;9.30;;
11197;SDS011;5655;48.744;9.162;2023-11-21T19:03:34;14.57;;;9.15;;
11197;SDS011;5655;48.744;9.162;2023-11-21T19:05:59;14.13;;;9.15;;
11197;SDS011;5655;48.744;9.162;2023-11-21T19:08:24;17.00;;;9.13;;
11197;SDS011;5655;48.744;9.162;2023-11-21T19:10:50;15.70;;;9.55;;
11197;SDS011;5655;48.744;9.162;2023-11-21T19:13:15;15.88;;;9.05;;
11197;SDS011;5655;48.744;9.162;2023-11-21T19:15:42;18.58;;;8.65;;
11197;SDS011;5655;48.744;9.162;2023-11-21T19:18:09;18.38;;;9.32;;
11197;SDS011;5655;48.744;9.162;2023-11-21T19:20:34;14.00;;;9.10;;
11197;SDS011;5655;48.744;9.162;2023-11-21T19:22:59;19.30;;;9.30;;
11197;SDS011;5655;48.744;9.162;2023-11-21T19:25:25;18.60;;;8.85;;
11197;SDS011;5655;48.744;9.162;2023-11-21T19:27:50;16.67;;;9.27;;
11197;SDS011;5655;48.744;9.162;2023-11-21T19:30:16;14.77;;;9.27;;
11197;SDS011;5655;48.744;9.162;2023-11-21T19:32:42;18.73;;;9.40;;
11197;SDS011;5655;48.744;9.162;2023-11-21T19:35:08;17.70;;;9.13;;
11197;SDS011;5655;48.744;9.162;2023-11-21T19:37:34;15.07;;;9.10;;
11197;SDS011;5655;48.744;9.162;2023-11-21T19:39:59;15.95;;;9.10;;
11197;SDS011;5655;48.744;9.162;2023-11-21T19:42:25;15.27;;;9.57;;
11197;SDS011;5655;48.744;9.162;2023-11-21T19:44:50;18.02;;;9.55;;
11197;SDS011;5655;48.744;9.162;2023-11-21T19:47:16;17.90;;;9.13;;
11197;SDS011;5655;48.744;9.162;2023-11-21T19:49:41;19.77;;;10.95;;
11197;SDS011;5655;48.744;9.162;2023-11-21T19:52:06;19.73;;;8.95;;
11197;SDS011;5655;48.744;9.162;2023-11-21T19:54:32;16.98;;;9.35;;
11197;SDS011;5655;48.744;9.162;2023-11-21T19:56:58;15.27;;;8.63;;
11197;SDS011;5655;48.744;9.162;2023-11-21T19:59:28;20.15;;;9.60;;
11197;SDS011;5655;48.744;9.162;2023-11-21T20:01:54;14.45;;;8.82;;
11197;SDS011;5655;48.744;9.162;2023-11-21T20:04:20;17.15;;;8.95;;
11197;SDS011;5655;48.744;9.162;2023-11-21T20:06:46;19.27;;;9.75;;
11197;SDS011;5655;48.744;9.162;2023-11-21T20:09:13;15.35;;;9.10;;
11197;SDS011;5655;48.744;9.162;2023-11-21T20:11:39;17.27;;;9.35;;
11197;SDS011;5655;48.744;9.162;2023-11-21T20:14:05;18.83;;;9.10;;
11197;SDS011;5655;48.744;9.162;2023-11-21T20:16:30;17.42;;;9.45;;
11197;SDS011;5655;48.744;9.162;2023-11-21T20:18:55;13.75;;;8.98;;
11197;SDS011;5655;48.744;9.162;2023-11-21T20:21:21;14.85;;;8.93;;
11197;SDS011;5655;48.744;9.162;2023-11-21T20:23:50;21.05;;;10.32;;
11197;SDS011;5655;48.744;9.162;2023-11-21T20:26:22;20.88;;;10.82;;
11197;SDS011;5655;48.744;9.162;2023-11-21T20:28:48;20.88;;;11.32;;
11197;SDS011;5655;48.744;9.162;2023-11-21T20:31:15;17.48;;;10.60;;
11197;SDS011;5655;48.744;9.162;2023-11-21T20:33:41;20.10;;;9.88;;
11197;SDS011;5655;48.744;9.162;2023-11-21T20:36:06;17.63;;;9.63;;
11197;SDS011;5655;48.744;9.162;2023-11-21T20:38:32;18.40;;;10.10;;
11197;SDS011;5655;48.744;9.162;2023-11-21T20:40:57;13.88;;;8.68;;
11197;SDS011;5655;48.744;9.162;2023-11-21T20:43:23;21.58;;;9.93;;
11197;SDS011;5655;48.744;9.162;2023-11-21T20:45:48;18.65;;;9.15;;
11197;SDS011;5655;48.744;9.162;2023-11-21T20:48:13;17.67;;;9.23;;
11197;SDS011;5655;48.744;9.162;2023-11-21T20:50:39;16.92;;;9.05;;
11197;SDS011;5655;48.744;9.162;2023-11-21T20:53:06;14.00;;;8.60;;
11197;SDS011;5655;48.744;9.162;2023-11-21T20:55:35;26.95;;;9.10;;
11197;SDS011;5655;48.744;9.162;2023-11-21T20:58:03;13.32;;;8.15;;
11197;SDS011;5655;48.744;9.162;2023-11-21T21:00:28;17.33;;;7.75;;
11197;SDS011;5655;48.744;9.162;2023-11-21T21:02:53;17.40;;;8.77;;
11197;SDS011;5655;48.744;9.162;2023-11-21T21:05:20;16.95;;;8.35;;
11197;SDS011;5655;48.744;9.162;2023-11-21T21:07:47;20.05;;;9.50;;
11197;SDS011;5655;48.744;9.162;2023-11-21T21:10:13;18.40;;;9.05;;
11197;SDS011;5655;48.744;9.162;2023-11-21T21:12:39;15.82;;;9.20;;
11197;SDS011;5655;48.744;9.162;2023-11-21T21:15:04;15.30;;;9.68;;
11197;SDS011;5655;48.744;9.162;2023-11-21T21:17:31;17.73;;;9.77;;
11197;SDS011;5655;48.744;9.162;2023-11-21T21:19:57;17.92;;;9.48;;
11197;SDS011;5655;48.744;9.162;2023-11-21T21:22:22;19.25;;;10.20;;
11197;SDS011;5655;48.744;9.162;2023-11-21T21:24:47;17.50;;;11.18;;
11197;SDS011;5655;48.744;9.162;2023-11-21T21:27:13;19.17;;;10.65;;
11197;SDS011;5655;48.744;9.162;2023-11-21T21:29:38;21.35;;;10.48;;
11197;SDS011;5655;48.744;9.162;2023-11-21T21:32:04;18.95;;;10.15;;
11197;SDS011;5655;48.744;9.162;2023-11-21T21:34:30;24.88;;;10.40;;
11197;SDS011;5655;48.744;9.162;2023-11-21T21:36:55;19.35;;;10.35;;
11197;SDS011;5655;48.744;9.162;2023-11-21T21:39:21;19.67;;;10.60;;
11197;SDS011;5655;48.744;9.162;2023-11-21T21:41:47;19.00;;;10.88;;
11197;SDS011;5655;48.744;9.162;2023-11-21T21:44:13;20.80;;;10.48;;
11197;SDS011;5655;48.744;9.162;2023-11-21T21:46:39;19.75;;;10.23;;
11197;SDS011;5655;48.744;9.162;2023-11-21T21:49:07;19.55;;;10.15;;
11197;SDS011;5655;48.744;9.162;2023-11-21T21:51:34;24.77;;;11.45;;
11197;SDS011;5655;48.744;9.162;2023-11-21T21:54:01;26.70;;;12.23;;
11197;SDS011;5655;48.744;9.162;2023-11-21T21:56:26;24.83;;;12.38;;
11197;SDS011;5655;48.744;9.162;2023-11-21T21:58:52;26.55;;;11.88;;
11197;SDS011;5655;48.744;9.162;2023-11-21T22:01:17;23.05;;;12.93;;
11197;SDS011;5655;48.744;9.162;2023-11-21T22:03:43;25.50;;;11.73;;
11197;SDS011;5655;48.744;9.162;2023-11-21T22:06:09;22.92;;;10.50;;
11197;SDS011;5655;48.744;9.162;2023-11-21T22:08:34;25.50;;;11.35;;
11197;SDS011;5655;48.744;9.162;2023-11-21T22:11:00;28.27;;;12.05;;